createdAt,value
2019-04-10T00:00:51.367Z,10.99
2019-04-10T00:03:42.030Z,10.64
2019-04-10T00:06:30.178Z,10.57
2019-04-10T00:09:19.547Z,10.66
2019-04-10T00:12:10.112Z,10.80
2019-04-10T00:15:03.073Z,10.73
2019-04-10T00:17:51.959Z,10.77
2019-04-10T00:20:40.640Z,10.85
2019-04-10T00:23:31.082Z,10.84
2019-04-10T00:26:19.999Z,10.91
2019-04-10T00:29:08.832Z,10.92
2019-04-10T00:32:00.200Z,10.85
2019-04-10T00:34:47.676Z,10.72
2019-04-10T00:37:37.363Z,10.75
2019-04-10T00:40:27.605Z,10.82
2019-04-10T00:43:17.103Z,10.88
2019-04-10T00:46:06.161Z,10.96
2019-04-10T00:48:56.273Z,10.92
2019-04-10T00:51:45.812Z,10.74
2019-04-10T00:54:35.166Z,10.56
2019-04-10T00:57:23.677Z,10.60
2019-04-10T01:00:12.826Z,10.76
2019-04-10T01:03:02.126Z,10.71
2019-04-10T01:05:51.341Z,10.77
2019-04-10T01:08:40.635Z,10.77
2019-04-10T01:11:29.154Z,10.54
2019-04-10T01:14:17.886Z,10.66
2019-04-10T01:17:08.382Z,10.73
2019-04-10T01:19:57.222Z,10.79
2019-04-10T01:22:47.692Z,10.77
2019-04-10T01:25:36.865Z,10.77
2019-04-10T01:28:25.134Z,10.81
2019-04-10T01:31:14.967Z,10.89
2019-04-10T01:34:05.348Z,10.84
2019-04-10T01:36:54.700Z,10.83
2019-04-10T01:39:43.649Z,10.85
2019-04-10T01:42:32.415Z,10.79
2019-04-10T01:45:21.729Z,10.64
2019-04-10T01:48:10.036Z,10.70
2019-04-10T01:50:59.056Z,10.81
2019-04-10T01:53:48.246Z,10.80
2019-04-10T01:56:37.334Z,10.81
2019-04-10T01:59:27.318Z,10.68
2019-04-10T02:02:25.333Z,10.77
2019-04-10T02:05:14.481Z,10.84
2019-04-10T02:08:09.134Z,10.83
2019-04-10T02:10:53.675Z,10.99
2019-04-10T02:13:43.228Z,10.96
2019-04-10T02:16:32.656Z,10.98
2019-04-10T02:19:21.923Z,10.79
2019-04-10T02:22:11.772Z,10.91
2019-04-10T02:25:00.847Z,10.88
2019-04-10T02:27:50.901Z,10.68
2019-04-10T02:30:43.118Z,10.70
2019-04-10T02:33:31.448Z,10.71
2019-04-10T02:36:21.273Z,10.73
2019-04-10T02:39:20.640Z,10.64
2019-04-10T02:42:02.864Z,10.67
2019-04-10T02:44:52.152Z,10.71
2019-04-10T02:47:41.205Z,10.79
2019-04-10T02:50:31.157Z,10.83
2019-04-10T02:53:21.564Z,10.90
2019-04-10T02:56:11.787Z,10.94
2019-04-10T02:59:00.820Z,10.93
2019-04-10T03:01:49.789Z,10.80
2019-04-10T03:04:40.360Z,10.85
2019-04-10T03:07:31.909Z,10.90
2019-04-10T03:10:30.059Z,10.92
2019-04-10T03:13:13.591Z,10.88
2019-04-10T03:16:03.144Z,10.86
2019-04-10T03:18:52.924Z,10.69
2019-04-10T03:21:42.960Z,10.68
2019-04-10T03:24:31.738Z,10.70
2019-04-10T03:27:20.550Z,10.75
2019-04-10T03:30:10.933Z,10.76
2019-04-10T03:33:29.313Z,10.74
2019-04-10T03:36:15.918Z,10.68
2019-04-10T03:39:07.677Z,10.59
2019-04-10T03:41:56.788Z,10.57
2019-04-10T03:44:45.619Z,10.64
2019-04-10T03:47:34.265Z,10.64
2019-04-10T03:50:23.687Z,10.61
2019-04-10T03:53:12.565Z,10.73
2019-04-10T03:56:01.236Z,10.80
2019-04-10T03:58:51.428Z,10.92
2019-04-10T04:01:40.950Z,10.96
2019-04-10T04:04:30.052Z,10.98
2019-04-10T04:07:18.765Z,10.65
2019-04-10T04:10:09.341Z,10.44
2019-04-10T04:13:00.005Z,10.23
2019-04-10T04:15:50.561Z,10.24
2019-04-10T04:18:39.486Z,10.24
2019-04-10T04:21:28.678Z,10.35
2019-04-10T04:24:17.842Z,10.15
2019-04-10T04:27:07.624Z,10.22
2019-04-10T04:29:57.418Z,10.19
2019-04-10T04:32:46.153Z,10.22
2019-04-10T04:35:36.622Z,10.32
2019-04-10T04:38:27.706Z,10.12
2019-04-10T04:41:17.406Z,10.24
2019-04-10T04:44:06.638Z,10.16
2019-04-10T04:46:56.909Z,10.02
2019-04-10T04:49:46.730Z,10.17
2019-04-10T04:52:35.580Z,10.28
2019-04-10T04:55:24.440Z,10.28
2019-04-10T04:58:13.789Z,10.24
2019-04-10T05:01:02.646Z,10.38
2019-04-10T05:03:52.626Z,10.47
2019-04-10T05:06:41.853Z,10.52
2019-04-10T05:09:35.577Z,10.60
2019-04-10T05:12:20.559Z,10.65
2019-04-10T05:15:10.911Z,10.71
2019-04-10T05:17:59.940Z,10.74
2019-04-10T05:20:50.858Z,10.82
2019-04-10T05:23:39.689Z,10.76
2019-04-10T05:26:29.876Z,10.71
2019-04-10T05:29:19.562Z,10.76
2019-04-10T05:32:09.297Z,10.73
2019-04-10T05:34:58.563Z,10.65
2019-04-10T05:37:47.789Z,10.60
2019-04-10T05:40:36.709Z,10.49
2019-04-10T05:43:26.168Z,10.59
2019-04-10T05:46:14.874Z,10.66
2019-04-10T05:49:04.440Z,10.62
2019-04-10T05:51:56.379Z,10.40
2019-04-10T05:54:45.509Z,10.52
2019-04-10T05:57:34.905Z,10.61
2019-04-10T06:00:25.009Z,10.68
2019-04-10T06:03:14.539Z,10.70
2019-04-10T06:06:04.158Z,10.77
2019-04-10T06:08:52.995Z,10.74
2019-04-10T06:11:44.015Z,10.74
2019-04-10T06:14:32.464Z,10.79
2019-04-10T06:17:22.602Z,10.88
2019-04-10T06:20:14.006Z,10.94
2019-04-10T06:23:03.209Z,10.84
2019-04-10T06:25:52.153Z,10.96
2019-04-10T06:28:40.875Z,11.01
2019-04-10T06:31:30.487Z,11.01
2019-04-10T06:34:20.566Z,10.90
2019-04-10T06:37:10.171Z,10.85
2019-04-10T06:40:10.707Z,10.94
2019-04-10T06:42:53.113Z,11.09
2019-04-10T06:45:39.939Z,11.23
2019-04-10T06:48:29.029Z,11.32
2019-04-10T06:51:19.874Z,11.38
2019-04-10T06:54:11.043Z,11.11
2019-04-10T06:59:08.817Z,11.28
2019-04-10T07:02:11.436Z,11.32
2019-04-10T07:04:53.095Z,11.33
2019-04-10T07:07:48.533Z,11.41
2019-04-10T07:10:39.899Z,11.54
2019-04-10T07:13:19.737Z,11.56
2019-04-10T07:16:10.119Z,11.64
2019-04-10T07:19:03.079Z,11.66
2019-04-10T07:21:49.212Z,11.72
2019-04-10T07:24:41.198Z,11.79
2019-04-10T07:27:32.487Z,11.88
2019-04-10T07:30:23.598Z,11.72
2019-04-10T07:33:09.763Z,11.68
2019-04-10T07:35:59.235Z,11.71
2019-04-10T07:38:48.907Z,11.73
2019-04-10T07:41:37.871Z,11.75
2019-04-10T07:44:27.183Z,11.69
2019-04-10T07:47:15.490Z,11.73
2019-04-10T07:50:08.754Z,11.84
2019-04-10T07:52:58.106Z,11.83
2019-04-10T07:56:00.366Z,11.70
2019-04-10T07:58:37.769Z,11.80
2019-04-10T08:01:26.446Z,11.86
2019-04-10T08:04:15.275Z,11.89
2019-04-10T08:07:03.721Z,11.87
2019-04-10T08:09:52.374Z,11.84
2019-04-10T08:12:47.586Z,11.86
2019-04-10T08:15:31.584Z,11.97
2019-04-10T08:18:21.206Z,12.07
2019-04-10T08:21:09.637Z,12.21
2019-04-10T08:23:58.603Z,12.27
2019-04-10T08:26:47.838Z,12.36
2019-04-10T08:29:36.762Z,12.45
2019-04-10T08:32:25.757Z,11.73
2019-04-10T08:35:15.449Z,12.04
2019-04-10T08:38:05.500Z,11.89
2019-04-10T08:40:54.553Z,11.86
2019-04-10T08:43:43.585Z,11.80
2019-04-10T08:46:33.561Z,11.99
2019-04-10T08:49:22.935Z,12.02
2019-04-10T08:52:12.268Z,11.94
2019-04-10T08:55:03.754Z,11.93
2019-04-10T08:57:52.639Z,12.01
2019-04-10T09:00:41.120Z,12.08
2019-04-10T09:03:30.926Z,12.20
2019-04-10T09:06:20.782Z,12.35
2019-04-10T09:09:09.773Z,12.45
2019-04-10T09:11:59.720Z,12.56
2019-04-10T09:14:49.592Z,12.69
2019-04-10T09:17:39.556Z,12.86
2019-04-10T09:20:28.900Z,12.83
2019-04-10T09:23:29.813Z,12.52
2019-04-10T09:26:08.844Z,12.78
2019-04-10T09:28:58.880Z,12.92
2019-04-10T09:31:48.145Z,13.04
2019-04-10T09:34:37.972Z,13.09
2019-04-10T09:37:28.221Z,13.16
2019-04-10T09:40:16.822Z,13.00
2019-04-10T09:43:05.946Z,13.12
2019-04-10T09:45:55.729Z,13.12
2019-04-10T09:48:44.959Z,13.18
2019-04-10T09:51:34.195Z,13.09
2019-04-10T09:54:23.995Z,13.09
2019-04-10T09:57:13.310Z,13.11
2019-04-10T10:00:02.864Z,13.14
2019-04-10T10:02:52.881Z,13.16
2019-04-10T10:05:42.465Z,13.12
2019-04-10T10:08:31.780Z,13.10
2019-04-10T10:11:24.653Z,13.08
2019-04-10T10:14:13.288Z,13.03
2019-04-10T10:17:02.220Z,13.02
2019-04-10T10:19:53.525Z,12.85
2019-04-10T10:22:41.499Z,12.92
2019-04-10T10:25:30.985Z,12.92
2019-04-10T10:28:20.821Z,12.91
2019-04-10T10:31:09.922Z,12.92
2019-04-10T10:33:59.098Z,12.97
2019-04-10T10:36:50.647Z,12.96
2019-04-10T10:39:38.985Z,13.08
2019-04-10T10:42:28.348Z,13.14
2019-04-10T10:45:18.636Z,13.07
2019-04-10T10:48:08.613Z,13.04
2019-04-10T10:50:58.247Z,13.12
2019-04-10T10:53:48.292Z,13.20
2019-04-10T10:56:38.222Z,13.03
2019-04-10T10:59:27.366Z,12.74
2019-04-10T11:02:17.091Z,12.76
2019-04-10T11:05:07.168Z,12.94
2019-04-10T11:07:57.327Z,13.03
2019-04-10T11:10:50.457Z,13.00
2019-04-10T11:13:37.127Z,12.63
2019-04-10T11:16:27.169Z,12.77
2019-04-10T11:19:17.274Z,12.92
2019-04-10T11:22:07.476Z,13.06
2019-04-10T11:24:57.540Z,13.23
2019-04-10T11:27:47.542Z,13.18
2019-04-10T11:30:36.496Z,13.16
2019-04-10T11:33:26.325Z,13.19
2019-04-10T11:36:17.441Z,13.23
2019-04-10T11:41:59.402Z,13.35
2019-04-10T11:44:49.334Z,13.27
2019-04-10T11:47:38.841Z,13.08
2019-04-10T11:50:28.599Z,13.08
2019-04-10T11:53:19.111Z,13.14
2019-04-10T11:56:10.384Z,13.24
2019-04-10T11:58:59.330Z,13.33
2019-04-10T12:01:50.692Z,13.40
2019-04-10T12:04:48.019Z,13.50
2019-04-10T12:13:10.350Z,13.55
2019-04-10T12:15:59.477Z,13.54
2019-04-10T12:18:48.880Z,13.62
2019-04-10T12:21:38.001Z,13.63
2019-04-10T12:24:27.311Z,13.64
2019-04-10T12:27:16.669Z,13.61
2019-04-10T12:30:07.936Z,13.63
2019-04-10T12:32:56.851Z,13.61
2019-04-10T12:35:45.766Z,13.63
2019-04-10T12:38:34.386Z,13.61
2019-04-10T12:41:23.519Z,13.63
2019-04-10T12:44:13.597Z,13.59
2019-04-10T12:47:03.540Z,13.62
2019-04-10T12:49:58.226Z,13.53
2019-04-10T12:52:49.344Z,13.60
2019-04-10T12:55:38.958Z,13.62
2019-04-10T12:58:28.863Z,13.64
2019-04-10T13:01:18.431Z,13.65
2019-04-10T13:04:07.529Z,13.74
2019-04-10T13:06:57.001Z,13.78
2019-04-10T13:09:46.323Z,13.73
2019-04-10T13:12:36.018Z,13.70
2019-04-10T13:15:27.687Z,13.67
2019-04-10T13:18:16.936Z,13.69
2019-04-10T13:21:06.346Z,13.54
2019-04-10T13:23:57.279Z,13.62
2019-04-10T13:26:50.256Z,13.63
2019-04-10T13:29:39.209Z,13.69
2019-04-10T13:32:28.123Z,13.79
2019-04-10T13:35:17.957Z,13.89
2019-04-10T13:38:07.329Z,13.95
2019-04-10T13:40:56.359Z,13.95
2019-04-10T13:43:47.779Z,14.06
2019-04-10T13:46:37.285Z,14.09
2019-04-10T13:49:26.180Z,14.17
2019-04-10T13:52:16.136Z,14.19
2019-04-10T13:55:05.712Z,14.20
2019-04-10T13:57:55.034Z,14.08
2019-04-10T14:00:43.716Z,13.85
2019-04-10T14:03:32.706Z,13.81
2019-04-10T14:06:21.819Z,13.74
2019-04-10T14:09:30.064Z,13.65
2019-04-10T14:12:08.446Z,13.36
2019-04-10T14:14:57.369Z,13.22
2019-04-10T14:17:46.652Z,13.30
2019-04-10T14:20:35.593Z,13.37
2019-04-10T14:23:28.631Z,13.39
2019-04-10T14:26:45.852Z,13.24
2019-04-10T14:29:25.185Z,13.30
2019-04-10T14:32:20.797Z,13.34
2019-04-10T14:35:10.385Z,13.33
2019-04-10T14:38:01.012Z,13.30
2019-04-10T14:40:50.076Z,13.28
2019-04-10T14:43:39.756Z,13.29
2019-04-10T14:46:28.905Z,13.31
2019-04-10T14:49:18.749Z,13.28
2019-04-10T14:52:08.725Z,13.33
2019-04-10T14:54:57.684Z,13.37
2019-04-10T14:57:47.960Z,13.36
2019-04-10T15:00:41.160Z,13.23
2019-04-10T15:03:30.695Z,13.28
2019-04-10T15:06:22.734Z,13.28
2019-04-10T15:09:25.570Z,13.36
2019-04-10T15:12:12.303Z,13.38
2019-04-10T15:15:01.750Z,13.43
2019-04-10T15:17:51.173Z,13.44
2019-04-10T15:20:40.242Z,13.46
2019-04-10T15:23:29.619Z,13.49
2019-04-10T15:26:18.210Z,13.44
2019-04-10T15:29:07.837Z,13.43
2019-04-10T15:31:57.823Z,13.47
2019-04-10T15:34:48.269Z,13.45
2019-04-10T15:37:37.420Z,13.46
2019-04-10T15:40:27.662Z,13.42
2019-04-10T15:43:16.805Z,13.46
2019-04-10T15:46:06.221Z,13.50
2019-04-10T15:48:55.161Z,13.38
2019-04-10T15:51:44.157Z,13.39
2019-04-10T15:54:33.985Z,13.38
2019-04-10T15:57:23.250Z,13.35
2019-04-10T16:00:12.842Z,13.36
2019-04-10T16:03:01.433Z,13.38
2019-04-10T16:05:50.567Z,13.37
2019-04-10T16:08:40.789Z,13.38
2019-04-10T16:11:47.062Z,13.39
2019-04-10T16:14:35.954Z,13.39
2019-04-10T16:17:44.026Z,13.36
2019-04-10T16:20:33.976Z,13.34
2019-04-10T16:23:29.088Z,13.31
2019-04-10T16:26:18.775Z,13.24
2019-04-10T16:29:08.281Z,13.21
2019-04-10T16:31:56.845Z,13.19
2019-04-10T16:34:47.103Z,13.14
2019-04-10T16:37:36.153Z,13.13
2019-04-10T16:40:24.905Z,13.09
2019-04-10T16:43:13.991Z,13.06
2019-04-10T16:46:02.862Z,13.04
2019-04-10T16:48:51.267Z,13.05
2019-04-10T16:51:40.582Z,13.01
2019-04-10T16:54:29.299Z,12.99
2019-04-10T16:57:18.516Z,12.95
2019-04-10T17:00:08.158Z,12.92
2019-04-10T17:02:57.070Z,12.89
2019-04-10T17:05:46.307Z,12.88
2019-04-10T17:08:37.340Z,12.87
2019-04-10T17:11:27.104Z,12.86
2019-04-10T17:14:17.474Z,12.81
2019-04-10T17:17:06.888Z,12.81
2019-04-10T17:19:57.306Z,12.84
2019-04-10T17:22:48.581Z,12.79
2019-04-10T17:25:36.010Z,12.75
2019-04-10T17:28:26.524Z,12.75
2019-04-10T17:31:18.219Z,12.75
2019-04-10T17:34:06.790Z,12.72
2019-04-10T17:36:57.035Z,12.69
2019-04-10T17:39:45.630Z,12.64
2019-04-10T17:42:34.556Z,12.63
2019-04-10T17:45:25.839Z,12.62
2019-04-10T17:48:15.645Z,12.51
2019-04-10T17:51:05.843Z,12.43
2019-04-10T17:53:55.914Z,12.32
2019-04-10T17:56:46.513Z,12.31
2019-04-10T17:59:35.832Z,12.13
2019-04-10T18:02:25.450Z,12.18
2019-04-10T18:05:14.820Z,12.14
2019-04-10T18:08:05.106Z,12.24
2019-04-10T18:10:56.024Z,12.27
2019-04-10T18:13:45.035Z,12.10
2019-04-10T18:16:33.930Z,12.11
2019-04-10T18:19:22.597Z,12.12
2019-04-10T18:22:12.174Z,12.03
2019-04-10T18:25:01.548Z,11.98
2019-04-10T18:27:50.074Z,12.01
2019-04-10T18:30:39.171Z,12.02
2019-04-10T18:33:29.230Z,11.92
2019-04-10T18:36:17.579Z,11.97
2019-04-10T18:39:12.801Z,11.95
2019-04-10T18:42:01.294Z,11.88
2019-04-10T18:44:50.336Z,11.98
2019-04-10T18:47:39.418Z,11.96
2019-04-10T18:50:28.678Z,11.97
2019-04-10T18:53:19.195Z,11.90
2019-04-10T18:56:09.083Z,11.92
2019-04-10T18:59:08.569Z,11.92
2019-04-10T19:02:20.448Z,11.91
2019-04-10T19:05:19.408Z,11.94
2019-04-10T19:08:12.775Z,11.92
2019-04-10T19:11:10.609Z,11.91
2019-04-10T19:13:51.018Z,11.93
2019-04-10T19:16:41.486Z,11.89
2019-04-10T19:19:30.652Z,11.80
2019-04-10T19:22:20.327Z,11.80
2019-04-10T19:25:10.483Z,11.81
2019-04-10T19:28:00.343Z,11.74
2019-04-10T19:31:09.640Z,11.71
2019-04-10T19:33:49.156Z,11.70
2019-04-10T19:36:38.105Z,11.73
2019-04-10T19:39:27.368Z,11.74
2019-04-10T19:42:17.483Z,11.68
2019-04-10T19:45:09.836Z,11.69
2019-04-10T19:47:59.003Z,11.67
2019-04-10T19:50:47.990Z,11.71
2019-04-10T19:53:37.486Z,11.66
2019-04-10T19:56:26.745Z,11.62
2019-04-10T19:59:16.693Z,11.54
2019-04-10T20:02:06.693Z,11.54
2019-04-10T20:04:56.982Z,11.41
2019-04-10T20:07:47.531Z,11.47
2019-04-10T20:10:37.370Z,11.49
2019-04-10T20:13:26.954Z,11.43
2019-04-10T20:16:15.689Z,11.44
2019-04-10T20:19:05.488Z,11.46
2019-04-10T20:21:56.484Z,11.51
2019-04-10T20:24:47.224Z,11.46
2019-04-10T20:27:36.206Z,11.46
2019-04-10T20:30:28.075Z,11.42
2019-04-10T20:33:18.676Z,11.42
2019-04-10T20:36:08.913Z,11.41
2019-04-10T20:38:59.003Z,11.30
2019-04-10T20:41:53.222Z,11.25
2019-04-10T20:44:38.766Z,11.25
2019-04-10T20:47:28.006Z,11.27
2019-04-10T20:50:17.461Z,11.17
2019-04-10T20:53:07.489Z,11.15
2019-04-10T20:55:56.131Z,11.16
2019-04-10T20:58:45.053Z,11.17
2019-04-10T21:01:35.095Z,11.12
2019-04-10T21:04:23.897Z,11.15
2019-04-10T21:07:12.796Z,11.13
2019-04-10T21:10:01.283Z,11.08
2019-04-10T21:12:50.433Z,11.01
2019-04-10T21:15:40.096Z,10.97
2019-04-10T21:18:29.248Z,10.96
2019-04-10T21:21:18.601Z,10.99
2019-04-10T21:24:07.761Z,10.97
2019-04-10T21:26:56.969Z,10.95
2019-04-10T21:30:07.499Z,10.94
2019-04-10T21:33:03.882Z,10.84
2019-04-10T21:35:54.069Z,10.90
2019-04-10T21:38:42.834Z,10.91
2019-04-10T21:41:32.679Z,10.88
2019-04-10T21:44:21.783Z,10.83
2019-04-10T21:47:11.098Z,10.89
2019-04-10T21:50:00.407Z,10.91
2019-04-10T21:52:49.827Z,10.90
2019-04-10T21:55:39.511Z,10.91
2019-04-10T21:58:28.742Z,10.92
2019-04-10T22:01:18.569Z,10.86
2019-04-10T22:04:08.207Z,10.85
2019-04-10T22:07:14.028Z,10.84
2019-04-10T22:10:19.940Z,10.85
2019-04-10T22:13:09.035Z,10.86
2019-04-10T22:15:59.690Z,10.76
2019-04-10T22:18:48.150Z,10.72
2019-04-10T22:21:37.611Z,10.73
2019-04-10T22:24:26.878Z,10.67
2019-04-10T22:27:17.006Z,10.71
2019-04-10T22:30:08.325Z,10.76
2019-04-10T22:33:03.286Z,10.77
2019-04-10T22:35:52.609Z,10.78
2019-04-10T22:38:41.861Z,10.80
2019-04-10T22:41:32.718Z,10.84
2019-04-10T22:44:32.470Z,10.84
2019-04-10T22:47:11.290Z,10.84
2019-04-10T22:50:00.839Z,10.79
2019-04-10T22:52:50.706Z,10.82
2019-04-10T22:55:40.253Z,10.82
2019-04-10T22:58:29.221Z,10.65
2019-04-10T23:01:18.621Z,10.65
2019-04-10T23:04:08.015Z,10.61
2019-04-10T23:06:57.712Z,10.65
2019-04-10T23:09:47.098Z,10.66
2019-04-10T23:12:35.628Z,10.64
2019-04-10T23:15:25.120Z,10.68
2019-04-10T23:18:15.120Z,10.69
2019-04-10T23:21:04.146Z,10.65
2019-04-10T23:23:52.728Z,10.62
2019-04-10T23:26:41.638Z,10.63
2019-04-10T23:29:30.950Z,10.63
2019-04-10T23:32:19.481Z,10.63
2019-04-10T23:35:07.894Z,10.63
2019-04-10T23:37:57.290Z,10.64
2019-04-10T23:40:45.840Z,10.60
2019-04-10T23:43:35.669Z,10.63
2019-04-10T23:46:24.773Z,10.62
2019-04-10T23:49:13.375Z,10.55
2019-04-10T23:52:01.831Z,10.57
2019-04-10T23:54:51.367Z,10.59
2019-04-10T23:57:41.129Z,10.58
